Terminal Aerodrome Forecast
Issued by NWS Grand Forks, ND

Home | Current Version | Previous Version | Graphics & Text | Print | Product List | Glossary On
Versions: 1 2 3 4 5 6 7 8 9 10 11 12 13 14
000
FTUS43 KFGF 241720
TAFFAR
TAF
KFAR 241720Z 2418/2518 35015KT P6SM SCT030
     FM250600 34008KT P6SM FEW110
     FM251200 26005KT P6SM BKN060=

USA.gov is the U.S. government's official web portal to all federal, state and local government web resources and services.